CNA3 weather

Springwater Barrie Airpark
Springwater, Ontario, Canada

Public forecast

Using degrees Celsius for public forecast. Weather courtesy of forecast.io.

Closest aviation weather report (METAR) to Springwater Barrie Airpark

Closest report is CFB Borden, 11.2 nm (20.8 km) SW. Retrieved 2019/10/16 21:23 UTC (0 seconds ago):

CYBN 162123Z AUTO 24005KT 9SM OVC042 09/07 A2947

Closest aviation forecast (TAF) to Springwater Barrie Airpark

Closest forecast is CFB Borden, 11.2 nm (20.8 km) SW. Retrieved 2019/10/16 18:33 UTC (3 hours ago):

TAF TAF CYBN 161730Z 1618/1706 19012KT P6SM SCT015 OVC030 TEMPO 1618/1701 5SM -RA -DZ BR BKN015 OVC025 FM170100 VRB03KT 5SM BR FEW010 BKN020 TEMPO 1701/1706 2SM BR BKN010 OVC020 RMK FCST BASED ON AUTO OBS NXT FCST BY 170000Z